createdAt,value
2019-05-22T10:41:23.016Z,101400.59
2019-05-22T10:43:56.211Z,101404.71
2019-05-22T10:46:27.335Z,101401.16
2019-05-22T10:48:59.551Z,101403.31
2019-05-22T10:51:31.591Z,101403.88
2019-05-22T10:54:04.067Z,101405.62
2019-05-22T10:56:36.539Z,101411.42
2019-05-22T10:59:10.071Z,101409.59
2019-05-22T11:01:43.356Z,101404.23
2019-05-22T11:04:19.363Z,101409.97
2019-05-22T11:06:50.132Z,101407.55
2019-05-22T11:09:25.951Z,101405.16
2019-05-22T11:11:59.955Z,101399.14
2019-05-22T11:14:33.231Z,101398.07
2019-05-22T11:17:06.909Z,101406.56
2019-05-22T11:19:39.036Z,101398.95
2019-05-22T11:22:12.221Z,101404.80
2019-05-22T11:24:46.632Z,101399.45
2019-05-22T11:27:18.772Z,101405.09
2019-05-22T11:29:50.794Z,101392.11
2019-05-22T11:32:24.798Z,101399.20
2019-05-22T11:34:56.541Z,101400.30
2019-05-22T11:37:27.632Z,101396.19
2019-05-22T11:39:59.616Z,101390.27
2019-05-22T11:42:31.517Z,101386.82
2019-05-22T11:45:02.290Z,101387.22
2019-05-22T11:47:35.136Z,101393.27
2019-05-22T11:50:06.507Z,101388.73
2019-05-22T11:52:38.316Z,101394.08
2019-05-22T11:55:11.159Z,101389.62
2019-05-22T11:57:44.259Z,101386.44
2019-05-22T12:00:16.756Z,101380.57
2019-05-22T12:02:48.116Z,101380.76
2019-05-22T12:05:20.550Z,101383.16
2019-05-22T12:07:51.833Z,101385.91
2019-05-22T12:10:24.750Z,101379.48
2019-05-22T12:12:56.914Z,101380.20
2019-05-22T12:15:29.892Z,101378.22
2019-05-22T12:18:00.812Z,101377.54
2019-05-22T12:20:32.860Z,101369.59
2019-05-22T12:23:04.031Z,101368.36
2019-05-22T12:25:35.830Z,101364.09
2019-05-22T12:28:07.232Z,101361.04
2019-05-22T12:30:41.643Z,101353.48
2019-05-22T12:33:14.305Z,101360.38
2019-05-22T12:35:44.971Z,101357.84
2019-05-22T12:38:16.672Z,101353.77
2019-05-22T12:40:47.576Z,101358.75
2019-05-22T12:43:19.331Z,101354.38
2019-05-22T12:45:50.192Z,101353.59
2019-05-22T12:48:23.190Z,101350.30
2019-05-22T12:50:55.310Z,101352.03
2019-05-22T12:53:28.898Z,101356.78
2019-05-22T12:56:03.750Z,101358.36
2019-05-22T12:58:36.791Z,101356.45
2019-05-22T13:01:09.511Z,101356.52
2019-05-22T13:03:42.013Z,101353.78
2019-05-22T13:06:14.810Z,101349.48
2019-05-22T13:08:46.951Z,101352.80
2019-05-22T13:11:19.210Z,101346.52
2019-05-22T13:13:53.734Z,101343.61
2019-05-22T13:16:26.770Z,101342.23
2019-05-22T13:18:59.474Z,101333.94
2019-05-22T13:21:35.322Z,101333.32
2019-05-22T13:24:16.691Z,101332.13
2019-05-22T13:26:51.279Z,101333.94
2019-05-22T13:29:24.530Z,101333.82
2019-05-22T13:31:57.662Z,101331.20
2019-05-22T13:34:32.572Z,101329.73
2019-05-22T13:37:05.712Z,101328.25
2019-05-22T13:39:38.451Z,101324.42
2019-05-22T13:42:13.456Z,101320.33
2019-05-22T13:44:47.380Z,101322.87
2019-05-22T13:47:19.515Z,101314.64
2019-05-22T13:49:52.039Z,101315.70
2019-05-22T13:52:25.088Z,101316.00
2019-05-22T13:54:57.836Z,101314.03
2019-05-22T13:57:29.191Z,101313.20
2019-05-22T14:00:01.894Z,101307.63
2019-05-22T14:02:34.111Z,101302.73
2019-05-22T14:05:06.694Z,101302.17
2019-05-22T14:07:38.802Z,101294.54
2019-05-22T14:10:10.692Z,101301.00
2019-05-22T14:12:42.436Z,101297.87
2019-05-22T14:15:14.350Z,101298.25
2019-05-22T14:17:48.150Z,101297.68
2019-05-22T14:20:23.493Z,101285.30
2019-05-22T14:22:54.787Z,101290.50
2019-05-22T14:25:28.812Z,101291.66
2019-05-22T14:28:00.655Z,101287.65
2019-05-22T14:30:33.766Z,101285.68
2019-05-22T14:33:06.518Z,101277.36
2019-05-22T14:35:48.265Z,101283.30
2019-05-22T14:38:16.824Z,101278.60
2019-05-22T14:40:49.097Z,101285.16
2019-05-22T14:43:23.226Z,101283.93
2019-05-22T14:45:55.159Z,101274.56
2019-05-22T14:48:28.567Z,101279.86
2019-05-22T14:51:00.419Z,101270.29
2019-05-22T14:53:32.421Z,101271.85
2019-05-22T14:56:10.405Z,101275.98
2019-05-22T14:58:44.424Z,101275.27
2019-05-22T15:01:17.299Z,101267.97
2019-05-22T15:03:50.303Z,101271.82
2019-05-22T15:06:22.696Z,101265.95
2019-05-22T15:08:55.479Z,101263.75
2019-05-22T15:11:30.327Z,101263.75
2019-05-22T15:14:02.953Z,101266.84
2019-05-22T15:16:36.099Z,101259.89
2019-05-22T15:19:08.989Z,101255.14
2019-05-22T15:21:41.106Z,101257.91
2019-05-22T15:24:13.389Z,101252.20
2019-05-22T15:26:47.049Z,101258.49
2019-05-22T15:29:20.042Z,101255.84
2019-05-22T15:31:54.665Z,101257.44
2019-05-22T15:34:29.788Z,101247.17
2019-05-22T15:37:03.214Z,101242.27
2019-05-22T15:39:35.267Z,101237.99
2019-05-22T15:42:08.641Z,101237.27
2019-05-22T15:44:42.278Z,101235.65
2019-05-22T15:47:24.611Z,101234.59
2019-05-22T15:49:58.108Z,101238.65
2019-05-22T15:52:35.943Z,101225.52
2019-05-22T15:55:09.438Z,101225.20
2019-05-22T15:57:43.025Z,101222.80
2019-05-22T16:00:22.877Z,101223.85
2019-05-22T16:03:03.279Z,101213.24
2019-05-22T16:05:39.786Z,101212.04
2019-05-22T16:08:12.586Z,101207.27
2019-05-22T16:10:47.861Z,101212.75
2019-05-22T16:13:21.410Z,101210.04
2019-05-22T16:15:55.985Z,101215.19
2019-05-22T16:18:32.506Z,101217.81
2019-05-22T16:21:06.531Z,101208.27
2019-05-22T16:23:40.447Z,101202.95
2019-05-22T16:26:14.243Z,101207.12
2019-05-22T16:28:49.065Z,101209.73
2019-05-22T16:31:22.347Z,101205.77
2019-05-22T16:33:55.684Z,101206.29
2019-05-22T16:36:29.874Z,101200.98
2019-05-22T16:39:02.884Z,101204.83
2019-05-22T16:41:36.264Z,101199.40
2019-05-22T16:44:08.566Z,101197.64
2019-05-22T16:46:42.172Z,101198.97
2019-05-22T16:49:15.423Z,101199.62
2019-05-22T16:51:47.844Z,101202.06
2019-05-22T16:54:20.857Z,101197.62
2019-05-22T16:56:53.591Z,101192.67
2019-05-22T16:59:24.954Z,101192.38
2019-05-22T17:02:00.330Z,101186.28
2019-05-22T17:04:33.544Z,101191.30
2019-05-22T17:07:06.128Z,101192.59
2019-05-22T17:09:38.587Z,101188.56
2019-05-22T17:12:11.644Z,101184.84
2019-05-22T17:14:45.908Z,101191.66
2019-05-22T17:17:20.663Z,101184.81
2019-05-22T17:19:52.983Z,101187.73
2019-05-22T17:22:38.817Z,101184.84
2019-05-22T17:25:21.431Z,101182.34
2019-05-22T17:27:56.253Z,101184.22
2019-05-22T17:30:29.874Z,101187.01
2019-05-22T17:33:02.182Z,101186.68
2019-05-22T17:35:34.573Z,101187.06
2019-05-22T17:38:07.545Z,101188.45
2019-05-22T17:40:40.805Z,101186.02
2019-05-22T17:43:15.367Z,101190.08
2019-05-22T17:45:48.266Z,101187.95
2019-05-22T17:48:22.525Z,101184.47
2019-05-22T17:50:56.870Z,101181.16
2019-05-22T17:53:29.604Z,101187.77
2019-05-22T17:56:01.293Z,101183.27
2019-05-22T17:58:33.224Z,101185.55
2019-05-22T18:01:04.993Z,101185.39
2019-05-22T18:03:37.505Z,101190.69
2019-05-22T18:06:10.987Z,101189.45
2019-05-22T18:08:42.624Z,101183.20
2019-05-22T18:11:14.345Z,101187.50
2019-05-22T18:14:06.087Z,101187.02
2019-05-22T18:16:37.143Z,101189.02
2019-05-22T18:19:08.955Z,101187.77
2019-05-22T18:21:40.641Z,101186.50
2019-05-22T18:24:12.704Z,101186.58
2019-05-22T18:26:44.142Z,101185.17
2019-05-22T18:29:16.581Z,101186.97
2019-05-22T18:31:48.386Z,101186.03
2019-05-22T18:34:20.270Z,101183.72
2019-05-22T18:36:52.267Z,101182.33
2019-05-22T18:39:24.611Z,101181.77
2019-05-22T18:41:56.896Z,101186.22
2019-05-22T18:44:29.803Z,101182.63
2019-05-22T18:47:02.188Z,101184.06
2019-05-22T18:49:35.102Z,101181.02
2019-05-22T18:52:06.928Z,101176.95
2019-05-22T18:54:38.385Z,101171.97
2019-05-22T18:57:09.403Z,101177.80
2019-05-22T18:59:41.084Z,101172.39
2019-05-22T19:02:12.663Z,101178.78
2019-05-22T19:04:43.979Z,101182.00
2019-05-22T19:07:16.893Z,101177.66
2019-05-22T19:09:48.696Z,101183.70
2019-05-22T19:12:21.455Z,101183.41
2019-05-22T19:14:53.301Z,101185.77
2019-05-22T19:17:25.974Z,101179.03
2019-05-22T19:19:57.782Z,101183.07
2019-05-22T19:22:31.502Z,101189.90
2019-05-22T19:25:03.026Z,101185.54
2019-05-22T19:27:34.654Z,101182.97
2019-05-22T19:30:07.017Z,101186.24
2019-05-22T19:32:38.034Z,101181.84
2019-05-22T19:35:10.813Z,101182.38
2019-05-22T19:37:44.541Z,101182.45
2019-05-22T19:40:18.943Z,101186.52
2019-05-22T19:42:51.608Z,101183.41
2019-05-22T19:45:23.252Z,101190.64
2019-05-22T19:47:58.063Z,101192.06
2019-05-22T19:50:31.682Z,101194.38
2019-05-22T19:53:18.314Z,101193.13
2019-05-22T19:55:38.923Z,101193.72
2019-05-22T19:58:11.403Z,101191.97
2019-05-22T20:00:43.524Z,101189.34
2019-05-22T20:03:15.324Z,101197.58
2019-05-22T20:05:47.535Z,101200.82
2019-05-22T20:08:20.304Z,101199.07
2019-05-22T20:10:52.782Z,101198.23
2019-05-22T20:13:25.183Z,101201.89
2019-05-22T20:15:57.243Z,101209.23
2019-05-22T20:18:28.363Z,101216.09
2019-05-22T20:21:00.828Z,101217.98
2019-05-22T20:23:37.179Z,101217.58
2019-05-22T20:26:08.803Z,101223.08
2019-05-22T20:28:40.025Z,101218.29
2019-05-22T20:31:12.625Z,101217.02
2019-05-22T20:33:45.044Z,101215.72
2019-05-22T20:36:17.504Z,101222.05
2019-05-22T20:38:50.523Z,101226.67
2019-05-22T20:41:22.044Z,101222.22
2019-05-22T20:43:55.163Z,101224.50
2019-05-22T20:46:27.083Z,101225.59
2019-05-22T20:49:01.521Z,101226.17
2019-05-22T20:51:33.432Z,101226.23
2019-05-22T20:54:06.448Z,101224.47
2019-05-22T20:56:43.483Z,101229.44
2019-05-22T20:59:16.482Z,101226.70
2019-05-22T21:01:49.643Z,101227.63
2019-05-22T21:04:24.825Z,101231.27
2019-05-22T21:07:00.603Z,101228.16
2019-05-22T21:09:35.844Z,101233.48
2019-05-22T21:12:09.363Z,101228.46
2019-05-22T21:14:42.543Z,101227.53
2019-05-22T21:17:15.290Z,101226.28
2019-05-22T21:19:49.283Z,101226.28
2019-05-22T21:22:24.522Z,101225.45
2019-05-22T21:24:57.004Z,101225.09
2019-05-22T21:27:31.110Z,101223.84
2019-05-22T21:30:04.303Z,101223.48
2019-05-22T21:32:38.623Z,101228.86
2019-05-22T21:35:12.064Z,101223.57
2019-05-22T21:37:43.283Z,101217.41
2019-05-22T21:40:16.293Z,101222.08
2019-05-22T21:42:50.138Z,101228.91
2019-05-22T21:45:23.252Z,101227.69
2019-05-22T21:47:56.785Z,101229.54
2019-05-22T21:50:30.286Z,101227.00
2019-05-22T21:53:04.873Z,101224.43
2019-05-22T21:55:39.763Z,101220.55
2019-05-22T21:58:12.523Z,101225.97
2019-05-22T22:01:05.774Z,101226.88
2019-05-22T22:03:41.803Z,101221.97
2019-05-22T22:06:17.109Z,101221.53
2019-05-22T22:08:49.346Z,101224.23
2019-05-22T22:11:22.885Z,101221.54
2019-05-22T22:13:55.091Z,101225.28
2019-05-22T22:16:27.742Z,101217.34
2019-05-22T22:19:00.205Z,101226.45
2019-05-22T22:21:33.965Z,101222.90
2019-05-22T22:24:06.131Z,101228.33
2019-05-22T22:26:38.725Z,101217.61
2019-05-22T22:29:11.613Z,101212.69
2019-05-22T22:31:47.892Z,101214.92
2019-05-22T22:34:26.059Z,101213.11
2019-05-22T22:36:59.636Z,101213.55
2019-05-22T22:39:33.164Z,101216.70
2019-05-22T22:42:07.927Z,101227.45
2019-05-22T22:44:40.727Z,101215.38
2019-05-22T22:47:17.047Z,101220.30
2019-05-22T22:49:49.831Z,101221.61
2019-05-22T22:52:22.687Z,101218.44
2019-05-22T22:54:55.348Z,101209.89
2019-05-22T22:57:28.243Z,101218.41
2019-05-22T23:00:00.584Z,101213.03
2019-05-22T23:02:35.450Z,101212.14
2019-05-22T23:05:09.724Z,101206.77
2019-05-22T23:07:43.019Z,101209.97
2019-05-22T23:10:22.239Z,101205.56
2019-05-22T23:12:57.443Z,101213.63
2019-05-22T23:15:30.367Z,101210.52
2019-05-22T23:18:03.996Z,101213.17
2019-05-22T23:20:44.545Z,101214.48
2019-05-22T23:23:14.383Z,101212.69
2019-05-22T23:25:46.947Z,101205.14
2019-05-22T23:28:34.270Z,101212.34
2019-05-22T23:31:02.173Z,101214.19
2019-05-22T23:33:36.379Z,101208.85
2019-05-22T23:36:12.168Z,101213.84
2019-05-22T23:38:45.749Z,101206.73
2019-05-22T23:41:17.695Z,101201.43
2019-05-22T23:43:53.888Z,101208.16
2019-05-22T23:46:29.592Z,101209.55
2019-05-22T23:49:01.538Z,101203.73
2019-05-22T23:51:33.456Z,101212.30
2019-05-22T23:54:06.420Z,101203.45
2019-05-22T23:56:39.351Z,101199.46
2019-05-22T23:59:12.190Z,101202.56
